Time;durP1;ratioP1;P1;durP2;ratioP2;P2;SDS_P1;SDS_P2;PMS_P1;PMS_P2;Temp;Humidity;BMP_temperature;BMP_pressure;BME280_temperature;BME280_humidity;BME280_pressure;Samples;Min_cycle;Max_cycle;Signal;HPM_P1;HPM_P2
2022/07/20 00:01:45;;;;;;;6.38;3.13;;;24.20;59.60;;;;;;4971117;28;20563;-82
2022/07/20 00:04:11;;;;;;;6.43;3.10;;;24.10;60.20;;;;;;4987007;28;20080;-82
2022/07/20 00:06:37;;;;;;;4.68;3.38;;;24.20;60.00;;;;;;4967367;28;20041;-82
2022/07/20 00:11:49;;;;;;;6.50;3.65;;;24.10;60.10;;;;;;4985962;28;20163;-81
2022/07/20 00:14:15;;;;;;;10.95;3.78;;;24.00;60.10;;;;;;5005793;28;20657;-82
2022/07/20 00:16:41;;;;;;;10.27;3.15;;;24.00;59.90;;;;;;4988013;28;20052;-81
2022/07/20 00:19:07;;;;;;;9.60;3.70;;;23.90;60.40;;;;;;4965446;28;20552;-82
2022/07/20 00:21:34;;;;;;;6.88;3.33;;;23.90;60.30;;;;;;5003395;28;20559;-82
2022/07/20 00:24:00;;;;;;;7.38;3.22;;;24.00;60.10;;;;;;4966941;28;20123;-82
2022/07/20 00:26:26;;;;;;;5.82;3.10;;;23.90;60.20;;;;;;4969285;28;20054;-82
2022/07/20 00:28:52;;;;;;;5.75;2.80;;;23.90;60.60;;;;;;4986198;28;20129;-82
2022/07/20 00:31:19;;;;;;;7.97;3.63;;;23.80;60.50;;;;;;4982032;28;20464;-83
2022/07/20 00:33:48;;;;;;;6.35;3.05;;;23.80;60.20;;;;;;4984199;28;20554;-82
2022/07/20 00:36:15;;;;;;;6.25;3.20;;;23.80;60.40;;;;;;4983743;28;20052;-83
2022/07/20 00:38:41;;;;;;;6.45;3.78;;;23.80;60.60;;;;;;4966362;28;20047;-83
2022/07/20 00:41:08;;;;;;;6.75;3.40;;;23.70;60.40;;;;;;4968297;28;20524;-82
2022/07/20 00:44:05;;;;;;;6.25;3.30;;;23.70;60.60;;;;;;4982566;28;20088;-82
2022/07/20 00:46:39;;;;;;;5.53;3.28;;;23.60;61.10;;;;;;4962224;28;20375;-82
2022/07/20 00:49:07;;;;;;;7.18;2.97;;;23.60;61.40;;;;;;4983376;28;20049;-83
2022/07/20 00:51:35;;;;;;;10.10;3.88;;;23.50;62.20;;;;;;4967403;28;20061;-83
2022/07/20 00:54:03;;;;;;;4.85;3.15;;;23.50;61.70;;;;;;4967121;28;20195;-81
2022/07/20 00:56:29;;;;;;;6.07;3.50;;;23.50;61.50;;;;;;4965791;28;20048;-82
2022/07/20 00:58:55;;;;;;;5.20;3.13;;;23.40;61.70;;;;;;4966852;28;20053;-81
2022/07/20 01:01:23;;;;;;;9.77;3.50;;;23.40;61.60;;;;;;4982765;28;20056;-83
2022/07/20 01:03:49;;;;;;;5.72;3.53;;;23.40;61.70;;;;;;4951928;28;20049;-83
2022/07/20 01:06:15;;;;;;;6.63;3.83;;;23.40;62.00;;;;;;5018067;28;20498;-83
2022/07/20 01:08:41;;;;;;;7.25;4.13;;;23.20;62.90;;;;;;4950206;28;20068;-82
2022/07/20 01:11:07;;;;;;;7.70;3.75;;;23.20;63.50;;;;;;4981662;28;20098;-81
2022/07/20 01:13:34;;;;;;;10.45;3.70;;;23.10;63.70;;;;;;4967613;28;20045;-82
2022/07/20 01:16:01;;;;;;;8.05;3.30;;;23.00;63.70;;;;;;4968414;28;20067;-82
2022/07/20 01:18:27;;;;;;;5.68;3.70;;;23.00;64.30;;;;;;4966123;28;20469;-82
2022/07/20 01:21:02;;;;;;;7.55;3.85;;;22.90;64.30;;;;;;4981854;28;20170;-82
2022/07/20 01:23:28;;;;;;;4.53;3.63;;;22.90;64.50;;;;;;4972143;28;20120;-83
2022/07/20 01:25:55;;;;;;;5.43;3.80;;;22.80;64.20;;;;;;4966912;28;20135;-83
2022/07/20 01:28:21;;;;;;;6.32;3.60;;;22.80;64.40;;;;;;4984438;28;20057;-83
2022/07/20 01:30:47;;;;;;;6.93;4.13;;;22.80;65.20;;;;;;4950904;28;20496;-82
2022/07/20 01:33:14;;;;;;;5.82;3.72;;;22.80;64.90;;;;;;4958934;28;20379;-82
2022/07/20 01:35:40;;;;;;;7.95;3.80;;;22.70;65.50;;;;;;4999305;28;20298;-82
2022/07/20 01:38:06;;;;;;;7.32;3.80;;;22.70;65.50;;;;;;4982372;28;20517;-82
2022/07/20 01:40:32;;;;;;;8.00;3.85;;;22.60;65.50;;;;;;4980724;28;20049;-82
2022/07/20 01:42:58;;;;;;;7.25;3.75;;;22.60;65.90;;;;;;4982603;28;20438;-83
2022/07/20 01:45:25;;;;;;;7.75;3.92;;;22.60;65.80;;;;;;4968924;28;20175;-83
2022/07/20 01:47:51;;;;;;;8.85;4.10;;;22.50;66.70;;;;;;4956400;28;20399;-83
2022/07/20 01:50:17;;;;;;;9.65;3.90;;;22.60;66.30;;;;;;4945141;28;20052;-81
2022/07/20 01:52:45;;;;;;;10.38;3.83;;;22.50;66.70;;;;;;4952592;28;20049;-82
2022/07/20 01:55:11;;;;;;;10.48;3.92;;;22.50;66.70;;;;;;4968642;28;20463;-82
2022/07/20 01:57:37;;;;;;;5.65;3.70;;;22.50;66.50;;;;;;4968954;28;20080;-82
2022/07/20 02:00:06;;;;;;;5.72;3.72;;;22.50;66.50;;;;;;4983177;28;20057;-82
2022/07/20 02:02:38;;;;;;;10.05;4.25;;;22.50;66.30;;;;;;4970049;28;20079;-82
2022/07/20 02:05:04;;;;;;;8.73;4.25;;;22.60;66.10;;;;;;4968444;28;20255;-82
2022/07/20 02:07:30;;;;;;;6.03;3.88;;;22.60;65.90;;;;;;4952184;28;20591;-83
2022/07/20 02:09:56;;;;;;;7.25;3.53;;;22.60;65.80;;;;;;4984172;28;20052;-83
2022/07/20 02:12:22;;;;;;;6.15;4.20;;;22.60;66.00;;;;;;4984297;28;20053;-82
2022/07/20 02:14:48;;;;;;;7.40;4.00;;;22.60;65.70;;;;;;4954456;28;20124;-83
2022/07/20 02:17:15;;;;;;;7.95;3.92;;;22.60;65.90;;;;;;4968066;28;20077;-82
2022/07/20 02:19:41;;;;;;;7.53;3.80;;;22.60;65.60;;;;;;5001055;28;20060;-82
2022/07/20 02:22:07;;;;;;;7.55;4.07;;;22.60;65.70;;;;;;4970315;28;20045;-82
2022/07/20 02:24:33;;;;;;;6.80;3.83;;;22.50;65.80;;;;;;4967747;28;20049;-83
2022/07/20 02:26:59;;;;;;;11.07;3.75;;;22.60;65.80;;;;;;4967944;28;20045;-82
2022/07/20 02:29:25;;;;;;;5.50;4.00;;;22.50;65.80;;;;;;4953233;28;20357;-82
2022/07/20 02:31:51;;;;;;;6.15;4.18;;;22.50;65.80;;;;;;4976546;28;20049;-82
2022/07/20 02:34:17;;;;;;;6.28;3.30;;;22.50;66.10;;;;;;5014253;28;20061;-83
2022/07/20 02:36:44;;;;;;;9.25;3.78;;;22.50;66.50;;;;;;4968390;28;20214;-82
2022/07/20 02:39:10;;;;;;;6.70;3.65;;;22.40;67.40;;;;;;5003063;28;20567;-82
2022/07/20 02:41:36;;;;;;;8.35;4.60;;;22.40;67.30;;;;;;4950491;28;20513;-83
2022/07/20 02:44:02;;;;;;;7.00;3.95;;;22.30;67.80;;;;;;4985200;28;20383;-82
2022/07/20 02:46:29;;;;;;;6.13;3.63;;;22.10;69.60;;;;;;4954578;28;20413;-83
2022/07/20 02:48:58;;;;;;;7.53;3.85;;;22.10;69.60;;;;;;5005582;28;20045;-82
2022/07/20 02:51:24;;;;;;;6.85;3.75;;;22.00;69.80;;;;;;4984482;28;20522;-81
2022/07/20 02:53:52;;;;;;;5.93;3.80;;;22.00;70.10;;;;;;4983246;28;20053;-83
2022/07/20 02:56:18;;;;;;;5.30;4.10;;;21.90;70.20;;;;;;4986847;28;20113;-82
2022/07/20 02:58:45;;;;;;;5.13;3.83;;;21.90;70.20;;;;;;5001621;28;20045;-83
2022/07/20 03:01:11;;;;;;;6.72;3.78;;;21.90;70.60;;;;;;4958231;28;20368;-83
2022/07/20 03:03:37;;;;;;;6.85;3.95;;;21.80;70.60;;;;;;4986886;28;20053;-82
2022/07/20 03:06:03;;;;;;;7.97;4.50;;;21.80;71.20;;;;;;4978534;28;20075;-83
2022/07/20 03:08:29;;;;;;;5.47;4.07;;;21.80;71.50;;;;;;4999865;28;20072;-81
2022/07/20 03:10:55;;;;;;;7.90;4.07;;;21.70;71.60;;;;;;4984303;28;20045;-82
2022/07/20 03:13:21;;;;;;;8.25;3.38;;;21.60;72.40;;;;;;4952096;28;20083;-82
2022/07/20 03:15:48;;;;;;;5.68;3.88;;;21.60;72.80;;;;;;5016269;28;20118;-82
2022/07/20 03:18:14;;;;;;;6.93;3.97;;;21.60;73.60;;;;;;5002431;28;20160;-82
2022/07/20 03:20:40;;;;;;;7.97;4.43;;;21.50;73.30;;;;;;4989188;28;20052;-83
2022/07/20 03:23:06;;;;;;;8.35;3.85;;;21.50;74.20;;;;;;4987437;28;20473;-82
2022/07/20 03:25:33;;;;;;;8.05;4.10;;;21.50;74.60;;;;;;4990222;28;20056;-82
2022/07/20 03:28:00;;;;;;;6.45;3.78;;;21.50;74.70;;;;;;4972731;28;20100;-82
2022/07/20 03:30:27;;;;;;;8.20;4.45;;;21.50;74.30;;;;;;5003784;28;20053;-82
2022/07/20 03:32:54;;;;;;;7.80;4.38;;;21.50;74.30;;;;;;4956969;28;20042;-83
2022/07/20 03:35:20;;;;;;;8.32;3.78;;;21.50;74.80;;;;;;4972324;28;20054;-82
2022/07/20 03:37:46;;;;;;;7.88;4.82;;;21.40;75.40;;;;;;4986547;28;20050;-82
2022/07/20 03:40:13;;;;;;;6.07;4.03;;;21.40;75.40;;;;;;4982734;28;20037;-82
2022/07/20 03:42:40;;;;;;;9.35;4.32;;;21.40;75.60;;;;;;4982889;28;20326;-82
2022/07/20 03:45:07;;;;;;;5.97;4.43;;;21.40;75.60;;;;;;4970075;28;20050;-82
2022/07/20 03:47:33;;;;;;;7.40;4.18;;;21.40;75.40;;;;;;4954414;28;20037;-82
2022/07/20 03:50:00;;;;;;;6.10;4.07;;;21.50;75.60;;;;;;4957215;28;20072;-82
2022/07/20 03:52:26;;;;;;;6.38;4.00;;;21.40;76.30;;;;;;4970550;28;20132;-82
2022/07/20 03:54:52;;;;;;;8.10;3.90;;;21.40;76.60;;;;;;4954937;28;20523;-82
2022/07/20 03:57:18;;;;;;;6.32;4.10;;;21.30;78.20;;;;;;4971908;28;20053;-81
2022/07/20 03:59:44;;;;;;;6.45;4.55;;;21.20;79.20;;;;;;4989020;28;20049;-82
2022/07/20 04:02:10;;;;;;;7.60;3.70;;;21.20;79.10;;;;;;4955249;28;20050;-82
2022/07/20 04:04:36;;;;;;;6.78;3.83;;;21.20;79.90;;;;;;4970400;28;20152;-82
2022/07/20 04:07:02;;;;;;;9.52;4.07;;;21.10;81.50;;;;;;4970580;28;20351;-82
2022/07/20 04:09:44;;;;;;;12.63;4.30;;;21.10;82.30;;;;;;4969300;28;20515;-82
2022/07/20 04:12:16;;;;;;;6.72;4.03;;;21.00;84.20;;;;;;4986605;28;20449;-82
2022/07/20 04:14:42;;;;;;;6.63;3.80;;;21.00;85.70;;;;;;4986857;28;20045;-82
2022/07/20 04:17:09;;;;;;;4.70;3.58;;;21.00;85.60;;;;;;4987570;28;20128;-82
2022/07/20 04:19:36;;;;;;;5.45;4.25;;;20.90;87.90;;;;;;4955310;28;20049;-82
2022/07/20 04:22:02;;;;;;;10.50;5.15;;;20.90;87.10;;;;;;4982601;28;20046;-82
2022/07/20 04:24:29;;;;;;;8.65;3.88;;;20.90;87.00;;;;;;4952580;28;20077;-82
2022/07/20 04:26:55;;;;;;;8.30;4.68;;;21.00;89.20;;;;;;4986701;28;20052;-82
2022/07/20 04:29:22;;;;;;;7.13;4.00;;;21.00;88.60;;;;;;4984351;28;20064;-82
2022/07/20 04:31:49;;;;;;;5.55;3.70;;;21.00;88.90;;;;;;4986100;28;20049;-81
2022/07/20 04:34:16;;;;;;;6.70;4.00;;;21.00;90.10;;;;;;4972185;28;20056;-81
2022/07/20 04:36:41;;;;;;;7.03;4.18;;;21.00;90.10;;;;;;4970769;28;20060;-81
2022/07/20 04:39:08;;;;;;;9.52;4.03;;;21.00;90.50;;;;;;4969093;28;20041;-82
2022/07/20 04:41:34;;;;;;;7.50;3.75;;;21.10;90.70;;;;;;5001289;28;20139;-82
2022/07/20 04:44:00;;;;;;;8.75;4.25;;;21.10;91.50;;;;;;4968539;28;20081;-82
2022/07/20 04:46:28;;;;;;;8.55;4.82;;;21.10;92.10;;;;;;4946040;28;20104;-82
2022/07/20 04:48:55;;;;;;;7.63;4.57;;;21.10;92.10;;;;;;4963628;28;20460;-82
2022/07/20 04:51:22;;;;;;;8.80;4.65;;;21.10;92.80;;;;;;4952669;28;20048;-82
2022/07/20 04:53:48;;;;;;;7.70;4.40;;;21.20;92.90;;;;;;4984605;28;20552;-82
2022/07/20 04:56:14;;;;;;;5.70;4.18;;;21.20;92.90;;;;;;4983819;28;20045;-82
2022/07/20 04:58:40;;;;;;;8.90;4.78;;;21.20;92.80;;;;;;4965739;28;20060;-82
2022/07/20 05:01:06;;;;;;;4.82;4.10;;;21.30;92.40;;;;;;4962895;28;20049;-82
2022/07/20 05:03:32;;;;;;;8.65;4.60;;;21.40;92.30;;;;;;4981557;28;20142;-82
2022/07/20 05:05:58;;;;;;;8.18;4.40;;;21.50;92.50;;;;;;5005128;28;20045;-81
2022/07/20 05:08:25;;;;;;;7.05;4.20;;;21.50;92.40;;;;;;4950187;28;20479;-81
2022/07/20 05:10:51;;;;;;;8.60;4.13;;;21.60;92.20;;;;;;4954916;28;20425;-81
2022/07/20 05:13:17;;;;;;;9.95;4.85;;;21.70;92.00;;;;;;4962430;28;20079;-81
2022/07/20 05:15:43;;;;;;;8.38;4.10;;;22.00;92.30;;;;;;4966341;28;20041;-79
2022/07/20 05:18:09;;;;;;;7.05;4.43;;;22.40;91.60;;;;;;4979398;28;20053;-82
2022/07/20 05:20:35;;;;;;;10.57;4.78;;;22.70;90.80;;;;;;4985226;28;20049;-82
2022/07/20 05:23:01;;;;;;;8.65;4.55;;;23.00;90.60;;;;;;4954998;28;20049;-82
2022/07/20 05:25:28;;;;;;;9.70;4.32;;;23.40;90.40;;;;;;4986107;28;20049;-81
2022/07/20 05:27:54;;;;;;;8.45;4.35;;;23.60;90.40;;;;;;4971239;28;20492;-81
2022/07/20 05:30:20;;;;;;;9.02;4.85;;;23.80;90.40;;;;;;4985228;28;20057;-82
2022/07/20 05:32:46;;;;;;;6.45;3.70;;;23.90;90.10;;;;;;4938949;28;20056;-82
2022/07/20 05:35:12;;;;;;;7.57;4.13;;;24.20;90.00;;;;;;4967118;28;20041;-81
2022/07/20 05:37:38;;;;;;;8.82;4.47;;;24.40;89.80;;;;;;4944751;28;20072;-81
2022/07/20 05:40:04;;;;;;;6.53;4.10;;;24.70;88.90;;;;;;4946979;28;20501;-82
2022/07/20 05:42:30;;;;;;;6.53;4.47;;;24.80;88.40;;;;;;4966795;28;20096;-81
2022/07/20 05:44:56;;;;;;;8.25;4.38;;;25.10;87.20;;;;;;4985487;28;20041;-82
2022/07/20 05:47:23;;;;;;;5.43;4.25;;;25.20;85.50;;;;;;4952495;28;20052;-82
2022/07/20 05:49:49;;;;;;;7.60;4.70;;;25.30;84.50;;;;;;4965813;28;20637;-82
2022/07/20 05:52:15;;;;;;;7.00;3.72;;;25.50;84.20;;;;;;4959902;28;20064;-82
2022/07/20 05:54:41;;;;;;;8.30;4.95;;;25.60;84.50;;;;;;4949634;28;20049;-81
2022/07/20 05:57:08;;;;;;;8.27;4.95;;;25.70;82.80;;;;;;4980080;28;20049;-80
2022/07/20 05:59:34;;;;;;;7.25;4.25;;;25.90;82.50;;;;;;4983260;28;20107;-80
2022/07/20 06:02:00;;;;;;;6.28;4.25;;;26.10;82.20;;;;;;4967999;28;20513;-81
2022/07/20 06:04:26;;;;;;;22.95;20.67;;;26.30;80.40;;;;;;4983518;28;20588;-78
2022/07/20 06:06:52;;;;;;;40.50;36.45;;;26.50;81.10;;;;;;4997227;28;20045;-81
2022/07/20 06:09:18;;;;;;;6.80;4.60;;;26.70;81.40;;;;;;4984027;28;20056;-80
2022/07/20 06:11:44;;;;;;;11.70;7.60;;;26.70;81.60;;;;;;4983714;28;20053;-81
2022/07/20 06:14:10;;;;;;;20.55;18.42;;;27.10;83.10;;;;;;4953329;28;20560;-80
2022/07/20 06:16:36;;;;;;;32.10;29.08;;;27.20;82.40;;;;;;5002238;28;20049;-79
2022/07/20 06:19:03;;;;;;;17.88;15.75;;;27.40;81.40;;;;;;4970726;28;20044;-81
2022/07/20 06:21:29;;;;;;;11.65;6.70;;;27.40;81.60;;;;;;5002295;28;20045;-81
2022/07/20 06:23:55;;;;;;;10.43;4.30;;;27.60;82.60;;;;;;4988888;28;20041;-81
2022/07/20 06:26:24;;;;;;;8.57;4.53;;;27.80;82.10;;;;;;4969021;28;20491;-79
2022/07/20 06:28:50;;;;;;;9.15;5.63;;;28.00;81.90;;;;;;4974595;28;20145;-80
2022/07/20 06:31:16;;;;;;;14.43;11.60;;;28.20;80.70;;;;;;4966580;28;20440;-79
2022/07/20 06:33:42;;;;;;;13.63;7.93;;;28.20;79.00;;;;;;4956238;28;20069;-80
2022/07/20 06:36:09;;;;;;;13.30;9.52;;;28.30;78.30;;;;;;5009844;28;20042;-77
2022/07/20 06:38:35;;;;;;;8.18;3.75;;;28.50;77.10;;;;;;5001155;28;20064;-81
2022/07/20 06:41:01;;;;;;;5.85;3.92;;;28.40;77.40;;;;;;5022644;28;20048;-82
2022/07/20 06:43:28;;;;;;;7.70;4.20;;;28.50;76.70;;;;;;4973093;28;20061;-79
2022/07/20 06:45:54;;;;;;;11.98;5.03;;;28.50;76.30;;;;;;4984714;28;20124;-79
2022/07/20 06:48:20;;;;;;;6.50;3.70;;;28.50;76.00;;;;;;4976830;28;20048;-79
2022/07/20 06:50:46;;;;;;;10.30;4.85;;;28.50;76.00;;;;;;4936402;28;20057;-81
2022/07/20 06:53:13;;;;;;;12.75;4.15;;;28.50;74.70;;;;;;4970251;28;20053;-85
2022/07/20 06:55:39;;;;;;;7.88;4.47;;;28.60;75.00;;;;;;4982218;28;20041;-85
2022/07/20 06:58:23;;;;;;;8.07;4.47;;;28.60;74.00;;;;;;4990748;28;20371;-87
2022/07/20 07:00:51;;;;;;;8.55;4.00;;;28.70;73.20;;;;;;4969143;28;20045;-87
2022/07/20 07:03:18;;;;;;;7.30;4.35;;;28.80;72.30;;;;;;4987069;28;20060;-87
2022/07/20 07:05:44;;;;;;;12.25;4.32;;;28.70;72.30;;;;;;4979591;28;20037;-87
2022/07/20 07:08:10;;;;;;;8.88;4.78;;;28.90;71.00;;;;;;4971697;28;20493;-86
2022/07/20 07:10:36;;;;;;;9.00;5.00;;;29.00;70.60;;;;;;4958777;28;20049;-86
2022/07/20 07:13:02;;;;;;;9.13;4.75;;;29.10;69.40;;;;;;4986460;28;20041;-80
2022/07/20 07:15:28;;;;;;;9.20;4.88;;;29.30;67.90;;;;;;4982249;28;20401;-85
2022/07/20 07:17:58;;;;;;;8.05;5.15;;;29.20;66.70;;;;;;4943057;28;20072;-70
2022/07/20 07:20:24;;;;;;;9.40;5.68;;;29.30;66.00;;;;;;4983373;28;20045;-73
2022/07/20 07:22:50;;;;;;;11.00;5.93;;;29.30;65.90;;;;;;4975324;28;20413;-74
2022/07/20 07:25:16;;;;;;;12.55;5.85;;;29.50;65.50;;;;;;4954995;28;20055;-74
2022/07/20 07:27:42;;;;;;;11.45;6.88;;;29.50;66.40;;;;;;4969824;28;20042;-75
2022/07/20 07:30:09;;;;;;;11.43;6.10;;;29.60;65.20;;;;;;5002953;28;20045;-77
2022/07/20 07:32:35;;;;;;;9.88;6.93;;;29.60;65.40;;;;;;4969038;28;20049;-78
2022/07/20 07:35:01;;;;;;;9.30;6.97;;;29.60;65.20;;;;;;4982123;28;20560;-83
2022/07/20 07:37:30;;;;;;;8.73;6.63;;;29.90;65.20;;;;;;4957275;28;20041;-82
2022/07/20 07:39:56;;;;;;;9.82;6.40;;;30.00;66.10;;;;;;4968967;28;20128;-83
2022/07/20 07:42:23;;;;;;;15.52;6.88;;;30.00;66.50;;;;;;4981552;28;20046;-83
2022/07/20 07:44:49;;;;;;;9.88;6.85;;;30.10;66.90;;;;;;4984689;28;20501;-83
2022/07/20 07:47:15;;;;;;;12.35;7.70;;;30.30;67.80;;;;;;4959395;28;20533;-80
2022/07/20 07:49:41;;;;;;;12.23;8.90;;;30.60;68.40;;;;;;4982615;28;20052;-84
2022/07/20 07:52:07;;;;;;;12.52;9.50;;;30.50;68.10;;;;;;4953679;28;20041;-84
2022/07/20 07:54:34;;;;;;;12.20;9.70;;;30.50;67.60;;;;;;4984860;28;20045;-83
2022/07/20 07:57:00;;;;;;;17.13;9.25;;;30.50;68.30;;;;;;4985785;28;20108;-83
2022/07/20 07:59:26;;;;;;;14.00;10.13;;;30.60;69.20;;;;;;4953515;28;20785;-83
2022/07/20 08:01:52;;;;;;;16.73;9.45;;;30.70;69.80;;;;;;5001864;28;20565;-83
2022/07/20 08:04:18;;;;;;;18.65;11.02;;;30.80;70.50;;;;;;4984626;28;20348;-82
2022/07/20 08:06:44;;;;;;;14.30;11.73;;;31.10;70.00;;;;;;4984981;28;20038;-82
2022/07/20 08:09:10;;;;;;;15.15;11.73;;;31.30;70.40;;;;;;4984444;28;20046;-82
2022/07/20 08:11:40;;;;;;;17.25;13.30;;;31.40;71.30;;;;;;4984419;28;20373;-83
2022/07/20 08:14:11;;;;;;;18.08;13.27;;;31.40;72.00;;;;;;4971778;28;20045;-83
2022/07/20 08:16:38;;;;;;;15.48;13.88;;;31.10;72.70;;;;;;4982708;28;20045;-84
2022/07/20 08:19:04;;;;;;;17.33;13.85;;;31.10;73.20;;;;;;4970866;28;20128;-82
2022/07/20 08:21:30;;;;;;;17.60;14.82;;;31.10;73.50;;;;;;4987705;28;20087;-84
2022/07/20 08:23:56;;;;;;;21.10;18.35;;;31.00;74.20;;;;;;4953818;28;20050;-84
2022/07/20 08:26:22;;;;;;;20.00;14.95;;;30.80;75.60;;;;;;4969846;28;20053;-83
2022/07/20 08:28:48;;;;;;;19.10;16.08;;;31.00;76.30;;;;;;4998687;28;20049;-84
2022/07/20 08:31:15;;;;;;;19.92;17.15;;;30.90;76.90;;;;;;4971259;28;20045;-84
2022/07/20 08:33:41;;;;;;;20.48;16.08;;;31.00;76.70;;;;;;4970617;28;20045;-84
2022/07/20 08:36:07;;;;;;;17.45;15.52;;;31.10;77.90;;;;;;4952497;28;20049;-83
2022/07/20 08:38:33;;;;;;;20.20;16.23;;;31.40;78.10;;;;;;4969701;28;20576;-84
2022/07/20 08:41:00;;;;;;;21.92;17.27;;;31.40;78.90;;;;;;4983726;28;20034;-84
2022/07/20 08:43:27;;;;;;;23.83;17.50;;;31.50;78.90;;;;;;4953970;28;20070;-83
2022/07/20 08:45:53;;;;;;;23.83;18.88;;;31.70;78.70;;;;;;4997910;28;20037;-83
2022/07/20 08:48:20;;;;;;;21.73;16.17;;;31.70;79.10;;;;;;4984747;28;20068;-83
2022/07/20 08:50:48;;;;;;;22.27;17.67;;;31.90;78.30;;;;;;4967456;28;20099;-82
2022/07/20 08:53:15;;;;;;;23.45;18.90;;;32.00;78.30;;;;;;4988507;28;20041;-81
2022/07/20 08:55:41;;;;;;;23.05;18.73;;;32.10;78.80;;;;;;4986389;28;20133;-81
2022/07/20 08:58:09;;;;;;;20.95;17.75;;;31.90;79.90;;;;;;4998866;28;20204;-81
2022/07/20 09:00:35;;;;;;;22.13;17.92;;;32.20;79.70;;;;;;4984634;28;20390;-80
2022/07/20 09:03:05;;;;;;;21.63;19.42;;;32.30;79.20;;;;;;4981246;28;20497;-81
2022/07/20 09:05:34;;;;;;;21.55;17.85;;;32.40;78.70;;;;;;4987130;28;20045;-79
2022/07/20 09:08:02;;;;;;;23.75;19.58;;;32.40;79.50;;;;;;4983306;28;20119;-79
2022/07/20 09:10:31;;;;;;;24.77;21.30;;;32.30;77.70;;;;;;4949775;28;20049;-78
2022/07/20 09:13:14;;;;;;;23.75;20.75;;;32.00;75.90;;;;;;4998812;28;20060;-79
2022/07/20 09:15:42;;;;;;;26.88;21.40;;;31.90;75.80;;;;;;5015744;28;20565;-79
2022/07/20 09:18:24;;;;;;;34.10;22.90;;;31.70;76.20;;;;;;4981825;28;20059;-79
2022/07/20 09:20:57;;;;;;;27.03;22.43;;;31.80;75.80;;;;;;4969127;28;20074;-79
2022/07/20 09:23:43;;;;;;;24.02;21.65;;;32.20;75.40;;;;;;4967323;28;20131;-79
2022/07/20 09:26:14;;;;;;;26.88;23.48;;;32.20;75.10;;;;;;4982493;28;20748;-79
2022/07/20 09:28:43;;;;;;;26.55;23.77;;;32.30;74.00;;;;;;4969827;28;20494;-78
2022/07/20 09:31:20;;;;;;;25.98;22.85;;;32.50;73.70;;;;;;4999853;28;20049;-79
2022/07/20 09:33:52;;;;;;;26.30;21.88;;;32.20;73.60;;;;;;4979924;28;20080;-79
2022/07/20 09:36:20;;;;;;;25.85;22.42;;;32.60;73.60;;;;;;4980947;28;20087;-81
2022/07/20 09:38:46;;;;;;;25.63;21.15;;;32.40;72.20;;;;;;4952869;28;20591;-79
2022/07/20 09:41:29;;;;;;;24.83;22.15;;;32.30;72.40;;;;;;4967737;28;20364;-78
2022/07/20 09:43:59;;;;;;;23.42;21.08;;;32.50;72.50;;;;;;4969553;28;20579;-78
2022/07/20 09:46:32;;;;;;;23.02;19.75;;;32.50;71.40;;;;;;4982425;28;20041;-78
2022/07/20 09:49:04;;;;;;;23.02;20.35;;;32.80;69.80;;;;;;5003112;28;20049;-78
2022/07/20 09:51:34;;;;;;;22.25;19.95;;;33.10;70.00;;;;;;4980628;28;20048;-77
2022/07/20 09:54:15;;;;;;;23.65;19.65;;;33.00;69.00;;;;;;4985255;28;20575;-77
2022/07/20 09:56:44;;;;;;;21.63;19.33;;;33.00;69.00;;;;;;4981634;28;20045;-82
2022/07/20 09:59:11;;;;;;;20.20;17.67;;;33.20;68.20;;;;;;4967552;28;20494;-80
2022/07/20 10:01:59;;;;;;;21.38;17.58;;;33.20;64.30;;;;;;4982429;28;20171;-78
2022/07/20 10:04:26;;;;;;;19.25;17.05;;;33.00;64.10;;;;;;5000834;28;20043;-77
2022/07/20 10:06:54;;;;;;;19.73;17.30;;;32.80;62.60;;;;;;5003359;28;20068;-79
2022/07/20 10:09:21;;;;;;;18.33;16.38;;;32.90;63.50;;;;;;4990078;28;20111;-81
2022/07/20 10:11:47;;;;;;;18.70;15.80;;;33.20;63.30;;;;;;4975029;28;20201;-81
2022/07/20 10:14:17;;;;;;;16.27;14.10;;;33.60;63.00;;;;;;4999413;28;20025;-81
2022/07/20 10:16:46;;;;;;;17.45;15.27;;;33.50;62.30;;;;;;5002600;28;20041;-81
2022/07/20 10:19:13;;;;;;;18.63;15.63;;;33.60;61.20;;;;;;4986983;28;20529;-81
2022/07/20 10:21:40;;;;;;;17.70;15.32;;;33.60;60.40;;;;;;4985179;28;20517;-81
2022/07/20 10:24:28;;;;;;;16.48;14.35;;;33.60;60.00;;;;;;4985365;28;20045;-81
2022/07/20 10:27:24;;;;;;;16.08;14.57;;;34.00;58.60;;;;;;4972284;28;20168;-80
2022/07/20 10:29:52;;;;;;;14.35;12.85;;;33.80;56.80;;;;;;4981826;28;20099;-79
2022/07/20 10:32:28;;;;;;;15.40;13.77;;;33.70;57.20;;;;;;4977876;28;20475;-80
2022/07/20 10:35:00;;;;;;;14.60;13.15;;;33.90;57.00;;;;;;4966781;28;20482;-80
2022/07/20 10:37:35;;;;;;;13.82;12.52;;;34.20;56.50;;;;;;4965492;28;20057;-81
2022/07/20 10:40:17;;;;;;;14.45;12.93;;;34.20;56.00;;;;;;4949948;28;20041;-82
2022/07/20 10:42:47;;;;;;;15.20;12.43;;;34.20;54.70;;;;;;4975500;28;20235;-80
2022/07/20 10:45:19;;;;;;;14.02;11.60;;;34.30;54.80;;;;;;4976495;28;20099;-81
2022/07/20 10:48:14;;;;;;;14.90;11.68;;;34.50;54.20;;;;;;4983008;28;20045;-81
2022/07/20 10:51:09;;;;;;;13.25;11.52;;;34.50;54.40;;;;;;4964444;28;20099;-81
2022/07/20 10:53:36;;;;;;;16.20;11.05;;;34.00;55.10;;;;;;4966035;28;20084;-81
2022/07/20 10:56:06;;;;;;;12.65;10.35;;;33.90;55.30;;;;;;4951213;28;20053;-81
2022/07/20 10:58:35;;;;;;;13.43;10.52;;;34.40;54.60;;;;;;4951986;28;20181;-78
2022/07/20 11:01:01;;;;;;;12.43;9.95;;;34.20;53.80;;;;;;4965693;28;20780;-82
2022/07/20 11:03:37;;;;;;;15.95;12.30;;;34.20;55.60;;;;;;4996912;28;20127;-81
2022/07/20 11:06:06;;;;;;;13.82;10.25;;;34.90;55.30;;;;;;4999203;28;20125;-79
2022/07/20 11:08:35;;;;;;;14.77;9.75;;;34.80;54.30;;;;;;4949218;28;20042;-82
2022/07/20 11:11:02;;;;;;;13.10;9.45;;;34.80;53.70;;;;;;4983185;28;20049;-82
2022/07/20 11:13:28;;;;;;;13.35;9.45;;;34.80;53.70;;;;;;4964051;28;20050;-82
2022/07/20 11:16:00;;;;;;;9.77;8.07;;;34.60;53.40;;;;;;4975978;28;20525;-82
2022/07/20 11:18:29;;;;;;;11.02;8.98;;;34.70;53.00;;;;;;4992932;28;20423;-82
2022/07/20 11:21:00;;;;;;;11.35;8.45;;;34.50;52.10;;;;;;4952240;28;20378;-82
2022/07/20 11:23:41;;;;;;;11.75;8.45;;;34.50;52.80;;;;;;4967354;28;20493;-82
2022/07/20 11:26:08;;;;;;;9.77;8.60;;;34.50;53.40;;;;;;4949643;28;20045;-81
2022/07/20 11:28:42;;;;;;;10.25;8.48;;;34.80;53.80;;;;;;4966565;28;20056;-80
2022/07/20 11:31:08;;;;;;;10.65;8.50;;;35.10;53.00;;;;;;4960252;28;20045;-81
2022/07/20 11:33:37;;;;;;;11.52;9.18;;;35.30;52.70;;;;;;4950965;28;20046;-80
2022/07/20 11:36:07;;;;;;;11.63;8.35;;;35.50;53.00;;;;;;4952762;28;20057;-81
2022/07/20 11:38:41;;;;;;;11.50;8.95;;;35.20;52.30;;;;;;5000707;28;20148;-80
2022/07/20 11:41:10;;;;;;;14.48;8.25;;;35.00;51.50;;;;;;5001415;28;20101;-81
2022/07/20 11:43:37;;;;;;;11.45;8.55;;;34.90;52.70;;;;;;4986088;28;20108;-82
2022/07/20 11:46:22;;;;;;;10.63;8.15;;;34.80;52.20;;;;;;4985307;28;20045;-81
2022/07/20 11:48:58;;;;;;;9.65;8.05;;;35.00;50.50;;;;;;4985868;28;20053;-77
2022/07/20 11:51:26;;;;;;;11.52;8.40;;;35.20;52.80;;;;;;5002165;28;20045;-80
2022/07/20 11:54:20;;;;;;;11.02;8.45;;;35.40;51.40;;;;;;4962416;28;20045;-79
2022/07/20 11:56:49;;;;;;;12.20;7.90;;;35.30;50.60;;;;;;4989191;28;20099;-79
2022/07/20 11:59:15;;;;;;;10.07;8.00;;;35.60;50.80;;;;;;4986709;28;20069;-79
2022/07/20 12:01:43;;;;;;;10.18;8.02;;;35.60;49.90;;;;;;4951528;28;20037;-79
2022/07/20 12:04:12;;;;;;;10.98;7.43;;;35.70;50.00;;;;;;4965582;28;20535;-80
2022/07/20 12:06:41;;;;;;;15.80;8.25;;;35.60;49.90;;;;;;4954430;28;20091;-80
2022/07/20 12:09:10;;;;;;;12.05;7.45;;;35.20;49.80;;;;;;4988258;28;20049;-80
2022/07/20 12:11:54;;;;;;;11.45;7.60;;;35.00;49.90;;;;;;4972222;28;20053;-80
2022/07/20 12:14:30;;;;;;;11.07;6.55;;;35.00;50.40;;;;;;4984123;28;20498;-80
2022/07/20 12:17:09;;;;;;;10.82;7.68;;;35.00;49.30;;;;;;4976046;28;20072;-81
2022/07/20 12:19:35;;;;;;;8.13;6.30;;;34.80;48.30;;;;;;4974860;28;20045;-80
2022/07/20 12:22:02;;;;;;;10.30;6.78;;;34.80;49.50;;;;;;4991241;28;20128;-79
2022/07/20 12:24:28;;;;;;;8.82;6.13;;;35.00;48.70;;;;;;4984526;28;20060;-79
2022/07/20 12:27:04;;;;;;;10.43;7.63;;;35.00;49.00;;;;;;4984088;28;20483;-79
2022/07/20 12:29:31;;;;;;;11.63;6.63;;;35.30;48.70;;;;;;4972136;28;20049;-80
2022/07/20 12:32:05;;;;;;;10.18;6.80;;;34.80;49.40;;;;;;4948698;28;20049;-80
2022/07/20 12:34:48;;;;;;;11.13;6.50;;;35.20;49.30;;;;;;4967359;28;20573;-80
2022/07/20 12:37:14;;;;;;;8.88;5.55;;;35.20;48.30;;;;;;4970054;28;20466;-81
2022/07/20 12:39:43;;;;;;;8.68;5.70;;;35.10;47.80;;;;;;4987101;28;20811;-80
2022/07/20 12:42:22;;;;;;;7.47;5.85;;;35.30;47.70;;;;;;4964848;28;20053;-78
2022/07/20 12:44:57;;;;;;;8.77;5.95;;;34.80;48.00;;;;;;4982300;28;20401;-78
2022/07/20 12:47:24;;;;;;;8.27;6.68;;;34.60;48.50;;;;;;4983365;28;20537;-79
2022/07/20 12:49:50;;;;;;;8.50;6.43;;;35.00;49.10;;;;;;4967213;28;20045;-80